Time;durP1;ratioP1;P1;durP2;ratioP2;P2;SDS_P1;SDS_P2;PMS_P1;PMS_P2;Temp;Humidity;BMP_temperature;BMP_pressure;BME280_temperature;BME280_humidity;BME280_pressure;Samples;Min_cycle;Max_cycle;Signal;HPM_P1;HPM_P2
2022/03/01 00:00:25;;;;;;;11.90;11.17;;;;;;;-2.46;80.38;93363.31;5090119;28;20192;-83
2022/03/01 00:02:50;;;;;;;11.30;10.67;;;;;;;-2.50;80.04;93351.88;5087664;28;20229;-83
2022/03/01 00:05:16;;;;;;;11.27;10.47;;;;;;;-2.86;80.42;93312.78;5091406;28;20188;-81
2022/03/01 00:07:41;;;;;;;15.90;14.53;;;;;;;-2.75;80.41;93325.09;5087650;28;20228;-83
2022/03/01 00:10:07;;;;;;;16.23;14.53;;;;;;;-2.51;79.97;93363.09;5105139;28;20208;-83
2022/03/01 00:12:33;;;;;;;51.47;31.23;;;;;;;-2.75;80.14;93340.41;5089548;28;20271;-80
2022/03/01 00:14:58;;;;;;;50.43;33.53;;;;;;;-2.75;80.40;93337.88;5089326;28;20200;-83
2022/03/01 00:17:25;;;;;;;22.50;19.67;;;;;;;-2.81;80.55;93314.78;5091886;28;20312;-83
2022/03/01 00:19:50;;;;;;;17.93;16.30;;;;;;;-2.76;80.62;93343.94;5086112;28;20743;-82
2022/03/01 00:22:16;;;;;;;17.43;15.83;;;;;;;-2.73;80.67;93345.34;5090739;28;20213;-82
2022/03/01 00:24:41;;;;;;;13.17;12.37;;;;;;;-3.23;81.47;93300.19;5091417;28;20188;-83
2022/03/01 00:27:07;;;;;;;12.40;11.60;;;;;;;-2.87;80.43;93336.75;5087413;28;20249;-82
2022/03/01 00:29:32;;;;;;;12.57;11.67;;;;;;;-3.00;80.43;93339.16;5089922;28;20208;-82
2022/03/01 00:31:58;;;;;;;13.43;12.40;;;;;;;-3.22;81.76;93326.53;5087057;28;20177;-83
2022/03/01 00:34:23;;;;;;;13.90;12.87;;;;;;;-3.05;81.56;93336.34;5089995;28;20244;-83
2022/03/01 00:36:49;;;;;;;12.83;11.87;;;;;;;-2.73;79.66;93330.00;5089796;28;20207;-82
2022/03/01 00:39:14;;;;;;;14.90;13.80;;;;;;;-3.26;81.43;93308.22;5088023;28;20247;-81
2022/03/01 00:41:40;;;;;;;17.03;15.50;;;;;;;-3.32;81.28;93327.59;5092026;28;20193;-82
2022/03/01 00:44:05;;;;;;;16.77;15.50;;;;;;;-3.36;81.97;93340.88;5087788;28;20228;-83
2022/03/01 00:46:31;;;;;;;16.70;15.20;;;;;;;-3.27;81.60;93335.50;5089202;28;20192;-82
2022/03/01 00:48:58;;;;;;;17.10;15.37;;;;;;;-3.53;81.70;93309.66;5088057;28;20250;-82
2022/03/01 00:51:27;;;;;;;18.60;16.90;;;;;;;-3.53;81.65;93324.16;5087089;28;20216;-83
2022/03/01 00:53:53;;;;;;;17.03;15.37;;;;;;;-3.57;82.41;93328.03;5089403;28;20250;-82
2022/03/01 00:56:18;;;;;;;16.87;15.27;;;;;;;-3.79;82.60;93290.66;5105560;28;20208;-82
2022/03/01 00:58:44;;;;;;;15.67;14.27;;;;;;;-3.65;82.59;93300.88;5086562;28;20221;-82
2022/03/01 01:01:09;;;;;;;15.40;14.20;;;;;;;-3.78;82.18;93298.13;5088565;28;20193;-82
2022/03/01 01:03:35;;;;;;;15.27;13.97;;;;;;;-3.68;81.70;93319.06;5085015;28;20239;-83
2022/03/01 01:06:01;;;;;;;14.30;13.20;;;;;;;-3.66;82.17;93318.91;5090779;28;20272;-83
2022/03/01 01:08:27;;;;;;;13.53;12.43;;;;;;;-3.69;82.04;93312.38;5083231;28;20221;-80
2022/03/01 01:10:52;;;;;;;14.47;13.40;;;;;;;-3.72;82.55;93309.41;5089829;28;20208;-83
2022/03/01 01:13:19;;;;;;;12.97;12.07;;;;;;;-3.77;82.54;93316.78;5090341;28;20229;-83
2022/03/01 01:15:44;;;;;;;13.50;12.60;;;;;;;-3.77;82.09;93316.78;5089477;28;20220;-82
2022/03/01 01:18:10;;;;;;;12.77;11.87;;;;;;;-3.90;82.53;93296.19;5090006;28;20224;-81
2022/03/01 01:20:36;;;;;;;12.17;11.47;;;;;;;-3.74;82.49;93317.22;5089944;28;20205;-83
2022/03/01 01:23:02;;;;;;;13.53;12.73;;;;;;;-3.80;82.27;93317.13;5087614;28;20217;-82
2022/03/01 01:25:28;;;;;;;12.33;11.53;;;;;;;-3.81;82.40;93307.88;5090696;28;20279;-82
2022/03/01 01:27:59;;;;;;;13.10;12.40;;;;;;;-3.77;82.03;93316.78;5087586;28;20232;-82
2022/03/01 01:30:28;;;;;;;12.90;12.00;;;;;;;-3.69;81.22;93273.34;5089756;28;20240;-82
2022/03/01 01:32:54;;;;;;;11.70;11.10;;;;;;;-3.69;81.35;93306.50;5088033;28;20239;-82
2022/03/01 01:35:22;;;;;;;12.53;11.73;;;;;;;-3.78;81.56;93308.34;5086801;28;20197;-83
2022/03/01 01:37:49;;;;;;;13.03;12.27;;;;;;;-3.74;81.48;93298.59;5089770;28;20250;-82
2022/03/01 01:40:22;;;;;;;12.00;11.30;;;;;;;-3.98;81.72;93284.31;5084041;28;20222;-82
2022/03/01 01:42:47;;;;;;;12.50;11.70;;;;;;;-4.07;82.15;93282.03;5086168;28;20216;-83
2022/03/01 01:45:13;;;;;;;12.77;11.90;;;;;;;-4.11;81.89;93273.94;5088296;28;20252;-80
2022/03/01 01:47:39;;;;;;;13.03;12.23;;;;;;;-4.10;82.07;93290.81;5086909;28;20248;-82
2022/03/01 01:50:05;;;;;;;12.17;11.47;;;;;;;-4.07;81.97;93280.28;5089271;28;20220;-82
2022/03/01 01:52:31;;;;;;;10.90;10.30;;;;;;;-4.20;81.67;93253.81;5087919;28;20224;-82
2022/03/01 01:54:57;;;;;;;10.40;9.80;;;;;;;-3.95;81.26;93283.16;5088315;28;20763;-83
2022/03/01 01:57:24;;;;;;;10.47;9.67;;;;;;;-3.87;80.76;93295.84;5088795;28;20216;-82
2022/03/01 01:59:51;;;;;;;12.13;11.20;;;;;;;-3.96;80.90;93271.41;5086323;28;20195;-82
2022/03/01 02:02:19;;;;;;;11.93;11.13;;;;;;;-3.85;81.39;93294.72;5088436;28;20231;-82
2022/03/01 02:04:44;;;;;;;13.60;12.50;;;;;;;-3.76;80.37;93272.44;5087772;28;20786;-83
2022/03/01 02:07:11;;;;;;;12.20;11.50;;;;;;;-3.85;80.79;93281.16;5088742;28;20319;-83
2022/03/01 02:09:37;;;;;;;13.40;12.53;;;;;;;-3.96;80.79;93286.69;5087307;28;20224;-81
2022/03/01 02:12:05;;;;;;;14.73;13.67;;;;;;;-3.85;80.67;93279.41;5085885;28;20208;-83
2022/03/01 02:14:31;;;;;;;16.80;15.40;;;;;;;-3.88;80.50;93269.56;5088660;28;20204;-83
2022/03/01 02:16:59;;;;;;;14.70;13.50;;;;;;;-3.91;80.54;93264.03;5088353;28;20176;-83
2022/03/01 02:19:25;;;;;;;15.67;14.40;;;;;;;-3.85;80.22;93273.50;5087372;28;20193;-83
2022/03/01 02:21:54;;;;;;;14.37;13.37;;;;;;;-4.12;80.06;93246.06;5086502;28;20189;-78
2022/03/01 02:24:20;;;;;;;16.43;14.93;;;;;;;-4.14;80.47;93228.41;5087849;28;20198;-83
2022/03/01 02:26:45;;;;;;;23.03;16.30;;;;;;;-4.26;80.41;93218.81;5087845;28;20249;-82
2022/03/01 02:29:11;;;;;;;19.37;17.17;;;;;;;-4.36;81.19;93234.38;5088375;28;20228;-82
2022/03/01 02:31:37;;;;;;;19.40;16.93;;;;;;;-4.21;81.22;93234.38;5085573;28;20185;-82
2022/03/01 02:34:04;;;;;;;18.93;17.23;;;;;;;-4.25;81.33;93240.81;5089884;28;20503;-81
2022/03/01 02:36:30;;;;;;;15.43;14.10;;;;;;;-4.29;82.16;93253.09;5090055;28;20188;-82
2022/03/01 02:38:56;;;;;;;14.13;12.97;;;;;;;-4.25;81.64;93248.44;5088104;28;20224;-82
2022/03/01 02:41:21;;;;;;;15.27;14.07;;;;;;;-3.96;81.88;93256.91;5089439;28;20192;-82
2022/03/01 02:43:47;;;;;;;12.63;11.73;;;;;;;-4.02;81.40;93241.50;5084968;28;20252;-82
2022/03/01 02:46:12;;;;;;;13.23;12.30;;;;;;;-4.02;81.50;93251.72;5088264;28;20279;-80
2022/03/01 02:48:38;;;;;;;11.07;10.37;;;;;;;-4.20;82.20;93223.25;5085142;28;20250;-82
2022/03/01 02:51:03;;;;;;;10.93;10.33;;;;;;;-3.90;82.36;93251.09;5087561;28;20967;-82
2022/03/01 02:53:29;;;;;;;11.70;11.00;;;;;;;-3.81;82.22;93239.84;5086860;28;20654;-80
2022/03/01 02:55:54;;;;;;;11.27;10.50;;;;;;;-3.84;81.83;93211.34;5086229;28;20247;-82
2022/03/01 02:58:20;;;;;;;10.50;10.00;;;;;;;-3.74;81.65;93255.22;5088355;28;20291;-82
2022/03/01 03:00:45;;;;;;;11.80;10.90;;;;;;;-3.77;81.57;93228.31;5086127;28;20200;-82
2022/03/01 03:03:12;;;;;;;12.53;11.63;;;;;;;-3.66;81.73;93250.03;5086271;28;20754;-82
2022/03/01 03:05:38;;;;;;;13.07;12.07;;;;;;;-3.34;82.07;93247.06;5087397;28;20181;-82
2022/03/01 03:08:04;;;;;;;14.90;13.47;;;;;;;-3.68;80.45;93229.00;5086426;28;20243;-81
2022/03/01 03:10:29;;;;;;;14.73;13.43;;;;;;;-3.94;81.92;93236.31;5089568;28;20220;-81
2022/03/01 03:12:55;;;;;;;14.57;13.10;;;;;;;-3.92;81.88;93226.75;5085685;28;20216;-82
2022/03/01 03:15:20;;;;;;;14.23;12.80;;;;;;;-3.75;81.70;93246.00;5088167;28;20210;-82
2022/03/01 03:17:46;;;;;;;12.50;11.57;;;;;;;-3.80;81.56;93230.44;5087009;28;20996;-81
2022/03/01 03:20:11;;;;;;;12.63;11.67;;;;;;;-3.57;81.21;93251.50;5086523;28;20187;-82
2022/03/01 03:22:37;;;;;;;12.23;11.43;;;;;;;-3.82;81.56;93227.25;5104431;28;20334;-81
2022/03/01 03:25:04;;;;;;;11.17;10.43;;;;;;;-3.77;81.66;93246.19;5088049;28;20232;-83
2022/03/01 03:27:29;;;;;;;10.97;10.27;;;;;;;-3.66;81.22;93248.25;5084589;28;20224;-82
2022/03/01 03:29:55;;;;;;;11.50;10.90;;;;;;;-3.53;81.02;93262.94;5088969;28;20227;-82
2022/03/01 03:32:20;;;;;;;11.97;11.33;;;;;;;-3.29;80.47;93244.75;5084566;28;20241;-81
2022/03/01 03:34:46;;;;;;;11.20;10.70;;;;;;;-2.77;80.52;93265.72;5090812;28;20218;-82
2022/03/01 03:37:11;;;;;;;11.17;10.37;;;;;;;-3.10;80.97;93239.09;5089215;28;20247;-81
2022/03/01 03:39:37;;;;;;;11.27;10.60;;;;;;;-2.90;80.64;93249.47;5091076;28;20201;-82
2022/03/01 03:42:02;;;;;;;11.27;10.60;;;;;;;-2.90;79.99;93244.38;5105675;28;20188;-82
2022/03/01 03:44:28;;;;;;;12.33;11.53;;;;;;;-2.87;79.82;93255.03;5091726;28;20223;-81
2022/03/01 03:46:53;;;;;;;10.80;10.10;;;;;;;-3.17;80.46;93233.09;5092130;28;20204;-82
2022/03/01 03:49:19;;;;;;;12.13;11.37;;;;;;;-2.85;79.35;93253.09;5091122;28;20204;-82
2022/03/01 03:51:46;;;;;;;11.23;10.53;;;;;;;-3.20;79.83;93261.56;5089290;28;20309;-82
2022/03/01 03:54:11;;;;;;;12.27;11.23;;;;;;;-2.93;80.50;93258.31;5090899;28;20283;-81
2022/03/01 03:56:36;;;;;;;12.43;11.57;;;;;;;-3.49;79.41;93228.44;5090696;28;20184;-83
2022/03/01 03:59:02;;;;;;;11.93;11.13;;;;;;;-3.49;81.13;93259.84;5090725;28;20240;-81
2022/03/01 04:01:27;;;;;;;10.93;10.33;;;;;;;-3.50;80.86;93249.81;5087285;28;20903;-81
2022/03/01 04:03:53;;;;;;;12.33;11.53;;;;;;;-3.64;81.38;93260.81;5089004;28;20683;-85
2022/03/01 04:06:19;;;;;;;11.33;10.63;;;;;;;-3.69;81.53;93212.13;5091211;28;20219;-80
2022/03/01 04:08:44;;;;;;;11.80;11.07;;;;;;;-3.74;81.21;93235.63;5087938;28;20224;-82
2022/03/01 04:11:09;;;;;;;11.00;10.30;;;;;;;-4.03;82.04;93184.63;5091951;28;21402;-82
2022/03/01 04:13:35;;;;;;;12.23;11.37;;;;;;;-3.83;81.46;93243.53;5104062;28;20212;-82
2022/03/01 04:16:01;;;;;;;12.07;11.27;;;;;;;-3.93;81.53;93230.25;5089427;28;20247;-82
2022/03/01 04:18:27;;;;;;;10.40;9.87;;;;;;;-3.72;80.70;93245.63;5088471;28;20233;-82
2022/03/01 04:20:52;;;;;;;11.07;10.47;;;;;;;-3.84;81.10;93247.03;5090051;28;20187;-82
2022/03/01 04:23:18;;;;;;;10.93;10.33;;;;;;;-3.86;81.63;93257.41;5107736;28;20251;-82
2022/03/01 04:25:43;;;;;;;11.17;10.50;;;;;;;-3.97;81.90;93252.75;5091031;28;20188;-81
2022/03/01 04:28:09;;;;;;;11.23;10.70;;;;;;;-3.81;80.85;93239.03;5089352;28;20245;-80
2022/03/01 04:30:35;;;;;;;10.93;10.33;;;;;;;-3.85;81.18;93250.56;5106518;28;20668;-81
2022/03/01 04:33:00;;;;;;;11.20;10.53;;;;;;;-3.85;80.69;93230.97;5088057;28;20224;-81
2022/03/01 04:35:27;;;;;;;12.73;11.90;;;;;;;-3.91;80.98;93253.81;5090420;28;20256;-82
2022/03/01 04:37:53;;;;;;;11.97;11.23;;;;;;;-3.95;81.61;93257.66;5087651;28;20236;-82
2022/03/01 04:40:19;;;;;;;11.27;10.60;;;;;;;-3.97;80.93;93251.97;5086980;28;20207;-82
2022/03/01 04:42:44;;;;;;;11.63;10.93;;;;;;;-3.85;81.25;93258.22;5087182;28;20213;-81
2022/03/01 04:45:11;;;;;;;12.37;11.57;;;;;;;-4.14;81.88;93268.41;5083374;28;20185;-81
2022/03/01 04:47:38;;;;;;;12.67;11.87;;;;;;;-4.28;81.97;93254.66;5089232;28;20281;-82
2022/03/01 04:50:04;;;;;;;11.80;11.20;;;;;;;-4.23;82.65;93249.03;5086733;28;20213;-81
2022/03/01 04:52:30;;;;;;;13.27;12.37;;;;;;;-3.95;81.47;93242.38;5088561;28;20232;-86
2022/03/01 04:54:55;;;;;;;15.90;13.93;;;;;;;-4.09;81.58;93264.34;5091104;28;20200;-77
2022/03/01 04:57:22;;;;;;;15.87;14.43;;;;;;;-4.18;81.43;93260.31;5081925;28;20292;-86
2022/03/01 04:59:47;;;;;;;15.30;13.77;;;;;;;-3.70;81.15;93267.44;5088380;28;20216;-85
2022/03/01 05:02:13;;;;;;;16.03;14.33;;;;;;;-4.37;80.70;93224.38;5083962;28;20297;-81
2022/03/01 05:04:38;;;;;;;14.03;12.90;;;;;;;-3.96;80.31;93266.31;5086581;28;20196;-80
2022/03/01 05:07:04;;;;;;;13.77;12.67;;;;;;;-4.10;81.12;93250.03;5087535;28;20252;-84
2022/03/01 05:09:29;;;;;;;12.57;11.67;;;;;;;-4.01;81.11;93264.28;5086306;28;20197;-81
2022/03/01 05:11:55;;;;;;;12.23;11.40;;;;;;;-4.23;80.87;93249.03;5087586;28;20234;-80
2022/03/01 05:14:20;;;;;;;12.70;11.73;;;;;;;-4.76;81.47;93188.88;5086215;28;20197;-77
2022/03/01 05:16:46;;;;;;;11.47;10.87;;;;;;;-4.35;81.23;93245.34;5089206;28;20208;-85
2022/03/01 05:19:13;;;;;;;11.33;10.60;;;;;;;-4.17;80.69;93284.06;5087125;28;20220;-83
2022/03/01 05:21:39;;;;;;;11.27;10.47;;;;;;;-4.16;81.13;93271.13;5088626;28;20220;-80
2022/03/01 05:24:05;;;;;;;10.33;9.83;;;;;;;-4.03;81.00;93275.63;5102489;28;20277;-82
2022/03/01 05:26:31;;;;;;;11.67;10.90;;;;;;;-4.18;80.75;93251.88;5088415;28;20188;-83
2022/03/01 05:28:57;;;;;;;12.63;11.53;;;;;;;-3.96;80.69;93279.03;5089208;28;20301;-78
2022/03/01 05:31:23;;;;;;;15.30;13.83;;;;;;;-3.94;81.00;93282.22;5087967;28;20248;-77
2022/03/01 05:33:49;;;;;;;14.17;13.07;;;;;;;-3.86;80.61;93274.50;5084720;28;20225;-79
2022/03/01 05:36:15;;;;;;;12.73;11.73;;;;;;;-3.72;80.21;93278.81;5100927;28;20258;-78
2022/03/01 05:38:41;;;;;;;11.63;10.83;;;;;;;-3.88;79.25;93238.16;5088601;28;20221;-76
2022/03/01 05:41:08;;;;;;;11.67;10.87;;;;;;;-3.28;79.50;93277.78;5088082;28;20195;-76
2022/03/01 05:43:34;;;;;;;15.23;13.53;;;;;;;-3.06;79.79;93273.47;5086865;28;20228;-80
2022/03/01 05:45:59;;;;;;;14.03;12.20;;;;;;;-3.28;78.93;93297.38;5088026;28;20205;-80
2022/03/01 05:48:26;;;;;;;16.27;14.50;;;;;;;-3.56;79.24;93265.84;5087397;28;20278;-81
2022/03/01 05:50:52;;;;;;;20.80;15.43;;;;;;;-3.53;78.64;93271.38;5105223;28;20245;-81
2022/03/01 05:53:18;;;;;;;25.97;18.80;;;;;;;-3.65;79.00;93254.94;5088438;28;20220;-81
2022/03/01 05:55:44;;;;;;;14.70;13.23;;;;;;;-3.28;78.66;93276.19;5088756;28;20266;-81
2022/03/01 05:58:09;;;;;;;15.07;13.57;;;;;;;-3.37;79.48;93301.81;5086767;28;20228;-81
2022/03/01 06:00:35;;;;;;;15.40;14.00;;;;;;;-3.22;78.94;93271.13;5086192;28;20219;-80
2022/03/01 06:03:00;;;;;;;14.40;13.10;;;;;;;-2.76;78.14;93303.06;5087359;28;20216;-81
2022/03/01 06:05:27;;;;;;;14.23;13.03;;;;;;;-2.75;78.01;93299.53;5084192;28;20181;-81
2022/03/01 06:07:53;;;;;;;12.77;11.77;;;;;;;-2.84;78.03;93274.28;5086575;28;20236;-81
2022/03/01 06:10:18;;;;;;;12.93;11.73;;;;;;;-2.76;77.07;93271.63;5103597;28;20234;-81
2022/03/01 06:12:44;;;;;;;13.73;12.63;;;;;;;-2.45;77.93;93293.34;5086584;28;20217;-81
2022/03/01 06:15:10;;;;;;;12.93;11.93;;;;;;;-2.23;76.49;93297.47;5087266;28;20181;-81
2022/03/01 06:17:36;;;;;;;17.03;13.23;;;;;;;-1.87;76.85;93316.00;5085941;28;20224;-82
2022/03/01 06:20:03;;;;;;;12.60;11.70;;;;;;;-1.94;75.64;93322.84;5089675;28;20204;-81
2022/03/01 06:22:28;;;;;;;14.17;12.97;;;;;;;-2.27;76.58;93287.75;5084831;28;20248;-80
2022/03/01 06:24:55;;;;;;;15.07;13.87;;;;;;;-1.94;76.75;93319.50;5088347;28;20193;-82
2022/03/01 06:27:22;;;;;;;15.17;13.90;;;;;;;-1.91;77.07;93319.94;5086145;28;20243;-81
2022/03/01 06:29:47;;;;;;;12.23;11.33;;;;;;;-1.73;76.68;93307.44;5083778;28;20223;-82
2022/03/01 06:32:12;;;;;;;13.93;12.97;;;;;;;-1.50;76.03;93311.50;5101734;28;20236;-82
2022/03/01 06:34:38;;;;;;;13.97;12.73;;;;;;;-1.63;76.68;93307.91;5084921;28;20181;-81
2022/03/01 06:37:03;;;;;;;13.23;12.27;;;;;;;-1.47;76.47;93290.66;5087341;28;20219;-82
2022/03/01 06:39:29;;;;;;;12.37;11.53;;;;;;;-1.61;76.15;93251.41;5086808;28;20208;-81
2022/03/01 06:41:55;;;;;;;13.40;12.40;;;;;;;-1.12;75.35;93316.03;5086650;28;20204;-82
2022/03/01 06:44:20;;;;;;;13.70;12.67;;;;;;;-1.30;76.28;93300.41;5088618;28;20201;-82
2022/03/01 06:46:46;;;;;;;13.80;12.80;;;;;;;-0.98;76.07;93304.09;5086340;28;20207;-82
2022/03/01 06:49:11;;;;;;;13.17;12.07;;;;;;;-0.95;75.40;93290.88;5088094;28;20221;-81
2022/03/01 06:51:37;;;;;;;15.30;13.90;;;;;;;-0.50;75.91;93316.59;5087888;28;20216;-81
2022/03/01 06:54:02;;;;;;;14.80;13.40;;;;;;;0.11;72.73;93303.66;5084190;28;20235;-81
2022/03/01 06:56:28;;;;;;;13.77;12.67;;;;;;;0.39;70.89;93283.66;5089862;28;20214;-81
2022/03/01 06:58:54;;;;;;;12.83;12.07;;;;;;;1.06;68.26;93323.38;5085985;28;20224;-81
2022/03/01 07:01:20;;;;;;;13.07;12.27;;;;;;;1.13;68.13;93319.03;5086590;28;20181;-82
2022/03/01 07:03:46;;;;;;;12.53;11.53;;;;;;;1.04;68.03;93317.66;5087753;28;20316;-80
2022/03/01 07:06:12;;;;;;;11.87;10.97;;;;;;;1.19;67.19;93319.97;5101537;28;20216;-82
2022/03/01 07:08:37;;;;;;;11.87;10.97;;;;;;;0.90;66.15;93328.19;5086509;28;20221;-81
2022/03/01 07:11:03;;;;;;;12.63;11.83;;;;;;;0.95;68.67;93326.59;5084972;28;20279;-81
2022/03/01 07:13:29;;;;;;;11.93;11.23;;;;;;;1.16;67.35;93310.91;5101977;28;20227;-82
2022/03/01 07:15:54;;;;;;;11.73;10.97;;;;;;;0.83;66.30;93283.72;5087819;28;20185;-82
2022/03/01 07:18:20;;;;;;;12.70;11.97;;;;;;;0.93;67.22;93308.03;5086046;28;20216;-81
2022/03/01 07:20:45;;;;;;;13.20;12.30;;;;;;;0.68;69.01;93298.59;5089421;28;20238;-81
2022/03/01 07:23:11;;;;;;;13.10;12.23;;;;;;;0.80;68.94;93322.69;5084524;28;20220;-82
2022/03/01 07:25:37;;;;;;;15.10;13.90;;;;;;;0.85;68.84;93328.81;5088660;28;20196;-83
2022/03/01 07:28:03;;;;;;;12.83;11.93;;;;;;;0.75;68.09;93318.16;5085984;28;20251;-82
2022/03/01 07:30:29;;;;;;;12.23;11.33;;;;;;;0.88;67.27;93322.47;5085292;28;20223;-82
2022/03/01 07:33:01;;;;;;;12.70;11.90;;;;;;;0.53;69.90;93314.25;5086968;28;20243;-82
2022/03/01 07:35:27;;;;;;;16.07;14.70;;;;;;;0.66;69.35;93327.06;5085327;28;20184;-82
2022/03/01 07:37:53;;;;;;;13.00;12.10;;;;;;;0.90;69.09;93321.25;5083894;28;20258;-82
2022/03/01 07:40:22;;;;;;;12.50;11.50;;;;;;;0.92;69.30;93329.56;5087444;28;20242;-80
2022/03/01 07:42:50;;;;;;;12.50;11.70;;;;;;;1.18;66.59;93321.75;5086669;28;20225;-82
2022/03/01 07:45:16;;;;;;;13.00;12.20;;;;;;;0.84;66.38;93291.22;5103375;28;20177;-82
2022/03/01 07:47:42;;;;;;;12.43;11.63;;;;;;;1.02;67.48;93319.66;5101892;28;20229;-82
2022/03/01 07:50:08;;;;;;;13.77;12.73;;;;;;;0.98;68.49;93312.56;5085128;28;20208;-82
2022/03/01 07:52:34;;;;;;;13.20;12.30;;;;;;;1.18;67.31;93306.31;5087268;28;20236;-82
2022/03/01 07:55:00;;;;;;;13.83;12.83;;;;;;;1.18;67.44;93288.31;5086482;28;20211;-82
2022/03/01 07:57:25;;;;;;;12.87;11.87;;;;;;;1.19;67.50;93284.78;5088025;28;20235;-81
2022/03/01 07:59:51;;;;;;;13.77;12.73;;;;;;;1.60;64.81;93304.94;5103539;28;20201;-82
2022/03/01 08:02:16;;;;;;;13.30;12.30;;;;;;;1.25;66.90;93276.22;5084424;28;20220;-82
2022/03/01 08:04:42;;;;;;;13.53;12.40;;;;;;;1.80;64.88;93320.25;5086704;28;20248;-81
2022/03/01 08:07:09;;;;;;;13.17;12.27;;;;;;;1.87;64.34;93323.56;5082879;28;20195;-82
2022/03/01 08:09:36;;;;;;;13.57;12.60;;;;;;;1.39;66.06;93289.81;5087326;28;20252;-81
2022/03/01 08:12:02;;;;;;;14.47;13.47;;;;;;;1.58;66.02;93312.88;5084750;28;20220;-81
2022/03/01 08:14:30;;;;;;;13.43;12.53;;;;;;;1.78;64.15;93314.50;5087064;28;20248;-82
2022/03/01 08:16:56;;;;;;;13.40;12.47;;;;;;;1.93;64.02;93322.75;5088243;28;20193;-81
2022/03/01 08:19:22;;;;;;;13.17;12.27;;;;;;;1.87;64.42;93321.78;5089713;28;20256;-82
2022/03/01 08:21:47;;;;;;;13.67;12.70;;;;;;;1.90;63.84;93338.59;5106484;28;20184;-81
2022/03/01 08:24:13;;;;;;;13.70;12.77;;;;;;;2.15;63.77;93331.69;5088428;28;20252;-82
2022/03/01 08:26:38;;;;;;;13.13;12.20;;;;;;;1.83;63.71;93294.88;5090939;28;20212;-82
2022/03/01 08:29:04;;;;;;;14.00;13.00;;;;;;;2.02;63.40;93326.63;5091072;28;20289;-82
2022/03/01 08:31:29;;;;;;;13.03;12.13;;;;;;;1.98;64.76;93323.69;5088156;28;20223;-82
2022/03/01 08:33:55;;;;;;;14.17;13.17;;;;;;;1.90;62.95;93303.34;5091091;28;20480;-81
2022/03/01 08:36:21;;;;;;;14.27;13.17;;;;;;;1.94;65.34;93337.19;5090762;28;20278;-82
2022/03/01 08:38:46;;;;;;;13.83;12.83;;;;;;;1.95;65.40;93331.03;5088552;28;20228;-82
2022/03/01 08:41:12;;;;;;;13.00;12.10;;;;;;;2.05;63.70;93334.72;5090112;28;20192;-82
2022/03/01 08:43:37;;;;;;;14.23;13.13;;;;;;;1.72;65.13;93325.63;5088235;28;20279;-82
2022/03/01 08:46:03;;;;;;;12.93;12.10;;;;;;;1.70;64.43;93312.97;5087801;28;20222;-81
2022/03/01 08:48:28;;;;;;;15.27;14.03;;;;;;;1.87;64.77;93333.88;5089065;28;20224;-82
2022/03/01 08:50:54;;;;;;;13.33;12.33;;;;;;;1.81;65.19;93330.31;5087040;28;20220;-82
2022/03/01 08:53:19;;;;;;;13.87;12.87;;;;;;;1.75;65.50;93335.50;5106623;28;20284;-83
2022/03/01 08:55:46;;;;;;;13.47;12.37;;;;;;;1.67;64.34;93329.63;5089322;28;20710;-83
2022/03/01 08:58:12;;;;;;;14.53;13.43;;;;;;;1.30;65.51;93338.13;5090971;28;20212;-82
2022/03/01 09:00:38;;;;;;;14.60;13.40;;;;;;;1.37;66.60;93336.31;5091339;28;20196;-81
2022/03/01 09:03:04;;;;;;;12.33;11.47;;;;;;;1.66;63.03;93329.84;5086959;28;20292;-82
2022/03/01 09:05:29;;;;;;;12.60;11.60;;;;;;;1.46;65.72;93332.50;5090633;28;20184;-82
2022/03/01 09:07:55;;;;;;;13.13;12.23;;;;;;;1.53;65.36;93319.59;5086666;28;20228;-81
2022/03/01 09:10:24;;;;;;;12.47;11.47;;;;;;;1.88;64.23;93328.50;5089105;28;20258;-81
2022/03/01 09:12:53;;;;;;;11.70;10.90;;;;;;;1.92;61.24;93306.50;5088503;28;20258;-82
2022/03/01 09:15:20;;;;;;;12.77;11.97;;;;;;;1.78;62.47;93332.53;5087857;28;20173;-81
2022/03/01 09:17:46;;;;;;;12.93;11.90;;;;;;;1.51;63.52;93309.53;5089204;28;20232;-81
2022/03/01 09:20:12;;;;;;;13.63;12.73;;;;;;;1.59;64.18;93336.78;5087598;28;20262;-82
2022/03/01 09:22:38;;;;;;;12.67;11.87;;;;;;;1.31;63.93;93297.75;5090082;28;20228;-81
2022/03/01 09:25:04;;;;;;;12.73;11.83;;;;;;;1.81;63.02;93350.13;5089498;28;20192;-82
2022/03/01 09:27:30;;;;;;;12.87;11.97;;;;;;;2.21;63.29;93346.31;5086697;28;20220;-81
2022/03/01 09:29:56;;;;;;;12.80;12.00;;;;;;;2.27;61.07;93335.16;5089464;28;20220;-81
2022/03/01 09:32:22;;;;;;;13.50;12.57;;;;;;;2.15;61.99;93349.72;5088206;28;20240;-81
2022/03/01 09:34:48;;;;;;;13.33;12.50;;;;;;;2.15;61.23;93335.03;5088480;28;20196;-82
2022/03/01 09:37:13;;;;;;;15.27;14.07;;;;;;;2.14;61.80;93319.78;5082318;28;20228;-82
2022/03/01 09:39:39;;;;;;;12.97;12.07;;;;;;;2.82;60.46;93349.72;5087349;28;20204;-82
2022/03/01 09:42:07;;;;;;;13.60;12.60;;;;;;;3.16;58.49;93352.53;5089168;28;20185;-81
2022/03/01 09:44:32;;;;;;;12.20;11.30;;;;;;;3.53;57.89;93358.47;5089551;28;21150;-82
2022/03/01 09:46:58;;;;;;;11.80;11.10;;;;;;;3.06;56.79;93316.16;5087127;28;20208;-81
2022/03/01 09:49:23;;;;;;;12.30;11.50;;;;;;;2.98;56.61;93336.28;5088959;28;20189;-80
2022/03/01 09:51:50;;;;;;;12.07;11.23;;;;;;;3.20;56.58;93347.75;5087165;28;20243;-82
2022/03/01 09:54:15;;;;;;;11.20;10.60;;;;;;;3.17;56.09;93322.38;5088733;28;20219;-80
2022/03/01 09:56:40;;;;;;;12.10;11.30;;;;;;;3.68;54.50;93338.22;5089430;28;20181;-81
2022/03/01 09:59:06;;;;;;;11.57;10.87;;;;;;;3.43;55.55;93329.78;5085589;28;20219;-82
2022/03/01 10:01:32;;;;;;;12.10;11.40;;;;;;;3.23;55.09;93332.63;5089339;28;20264;-81
2022/03/01 10:04:10;;;;;;;10.93;10.23;;;;;;;3.01;55.38;93333.25;5099925;28;20217;-82
2022/03/01 10:06:41;;;;;;;11.87;10.90;;;;;;;3.00;57.69;93339.44;5087308;28;20200;-83
2022/03/01 10:09:24;;;;;;;12.90;12.13;;;;;;;3.12;56.74;93322.22;5089267;28;20212;-82
2022/03/01 10:11:51;;;;;;;12.77;11.97;;;;;;;3.35;57.00;93343.00;5100691;28;20191;-82
2022/03/01 10:14:31;;;;;;;11.60;10.80;;;;;;;3.23;56.25;93317.16;5088037;28;20221;-81
2022/03/01 10:16:57;;;;;;;13.20;12.00;;;;;;;3.57;56.88;93338.94;5088676;28;20189;-81
2022/03/01 10:19:23;;;;;;;13.17;12.27;;;;;;;3.53;57.21;93312.00;5087926;28;20283;-81
2022/03/01 10:21:56;;;;;;;13.77;12.87;;;;;;;4.06;55.82;93338.66;5089059;28;20275;-81
2022/03/01 10:24:22;;;;;;;13.37;12.37;;;;;;;3.92;58.60;93329.53;5086845;28;20243;-81
2022/03/01 10:26:49;;;;;;;13.23;12.27;;;;;;;4.13;54.67;93334.19;5089365;28;20189;-82
2022/03/01 10:29:16;;;;;;;13.30;12.40;;;;;;;4.04;56.61;93325.19;5088663;28;20323;-81
2022/03/01 10:31:42;;;;;;;11.53;10.93;;;;;;;3.96;53.31;93322.94;5085413;28;20231;-82
2022/03/01 10:34:12;;;;;;;13.13;12.13;;;;;;;3.79;55.61;93323.75;5088407;28;20216;-81
2022/03/01 10:36:47;;;;;;;12.67;11.70;;;;;;;3.85;58.33;93320.28;5088272;28;20182;-81
2022/03/01 10:39:19;;;;;;;13.10;12.07;;;;;;;4.31;54.96;93305.69;5088474;28;20311;-82
2022/03/01 10:41:50;;;;;;;13.30;12.17;;;;;;;4.67;55.32;93313.22;5087455;28;20185;-82
2022/03/01 10:44:21;;;;;;;12.13;11.33;;;;;;;4.88;53.42;93325.59;5085068;28;20232;-81
2022/03/01 10:46:59;;;;;;;12.87;11.97;;;;;;;4.74;53.92;93319.09;5089882;28;20185;-81
2022/03/01 10:49:28;;;;;;;11.93;11.10;;;;;;;4.68;52.81;93307.06;5086013;28;20240;-81
2022/03/01 10:51:57;;;;;;;11.80;11.10;;;;;;;4.88;52.33;93307.50;5084544;28;20233;-81
2022/03/01 10:54:30;;;;;;;11.60;10.77;;;;;;;4.41;51.79;93290.41;5085451;28;20190;-80
2022/03/01 10:56:57;;;;;;;11.90;10.93;;;;;;;4.74;55.25;93302.78;5087479;28;20186;-81
2022/03/01 10:59:27;;;;;;;13.10;12.30;;;;;;;5.07;51.82;93305.56;5087826;28;20200;-81
2022/03/01 11:01:54;;;;;;;11.23;10.63;;;;;;;4.96;49.62;93294.19;5086804;28;20177;-81
2022/03/01 11:04:24;;;;;;;11.37;10.70;;;;;;;4.79;50.72;93306.25;5084812;28;20275;-81
2022/03/01 11:06:50;;;;;;;12.27;11.47;;;;;;;4.13;54.72;93282.53;5088819;28;20185;-82
2022/03/01 11:09:17;;;;;;;11.27;10.67;;;;;;;4.37;51.64;93283.34;5100956;28;20205;-81
2022/03/01 11:11:43;;;;;;;14.00;12.80;;;;;;;4.32;52.35;93286.59;5086058;28;20234;-80
2022/03/01 11:14:11;;;;;;;13.53;12.47;;;;;;;4.12;52.58;93291.28;5087254;28;20255;-82